Maersk Weymouth — VRFS9 — position and weather

sailwx.info

Track history (hours):
 
Tides and Currents Weather Stations Pressure Air Temp Water Temp Dewpoint Dewpoint Depression Visibility Wind Speed Wind Dir Waves Ship Positions

Maersk Weymouth

Last reported at 2017-Dec-17 01:06 UTC. Time now 2017-Dec-18 01:26 UTC.
Position N 36°49' W 075°46'.

Length 175 m; draft 7.4 m.

Type: Cargo ship. MMSI: 477622100.

Date/timePositionNaut miles runAvg speedWind from/ knotsBaromVisibWave heightAir tempDewpointWater temp
2017-Dec-17 01:06N 36°49' W 075°46'1 7.0
2017-Dec-17 00:58N 36°49' W 075°47'4 7.1
2017-Dec-17 00:25N 36°51' W 075°51'3 6.8
2017-Dec-17 00:00N 36°53' W 075°54'3 7.1
2017-Dec-16 23:30N 36°56' W 075°57'4 8.5
2017-Dec-16 23:00N 36°57' W 076°02'714.9
2017-Dec-16 22:30N 36°60' W 076°11'713.5
2017-Dec-16 21:58N 36°58' W 076°20'5 9.9
2017-Dec-16 21:30N 36°54' W 076°20'2 4.5
2017-Dec-16 21:00N 36°51' W 076°20'0 0.0
2017-Dec-16 20:30N 36°51' W 076°20'0 0.0
2017-Dec-16 19:59N 36°51' W 076°20'0 0.0
2017-Dec-16 19:29N 36°51' W 076°20'0 0.0
2017-Dec-16 18:59N 36°51' W 076°20'0 0.0
2017-Dec-16 18:29N 36°51' W 076°20'0 0.0
2017-Dec-16 17:59N 36°51' W 076°20'0 0.0
2017-Dec-16 17:29N 36°51' W 076°20'0 0.0
2017-Dec-16 16:59N 36°51' W 076°20'0 0.0
2017-Dec-16 16:29N 36°51' W 076°20'0 0.0
2017-Dec-16 15:59N 36°51' W 076°20'0 0.0
2017-Dec-16 15:26N 36°51' W 076°20'0 0.0
2017-Dec-16 14:59N 36°51' W 076°20'0 0.0
2017-Dec-16 14:29N 36°51' W 076°20'0 0.0
2017-Dec-16 13:59N 36°51' W 076°20'0 0.0
2017-Dec-16 13:29N 36°51' W 076°20'0 0.0
2017-Dec-16 12:59N 36°51' W 076°20'0 0.0
2017-Dec-16 12:29N 36°51' W 076°20'0 0.0
2017-Dec-16 11:59N 36°51' W 076°20'0 0.0
2017-Dec-16 11:29N 36°51' W 076°20'0 0.0
2017-Dec-16 10:59N 36°51' W 076°20'0 0.0
2017-Dec-16 10:29N 36°51' W 076°20'0 0.0
2017-Dec-16 09:59N 36°51' W 076°20'0 0.4
2017-Dec-16 09:30N 36°52' W 076°20'2 4.6
2017-Dec-16 09:00N 36°54' W 076°20'4 8.9
2017-Dec-16 08:30N 36°58' W 076°20'712.4
2017-Dec-16 07:57N 36°60' W 076°12'714.8
2017-Dec-16 07:30N 36°58' W 076°04'611.3
2017-Dec-16 07:00N 36°56' W 075°57'4 7.2
2017-Dec-16 06:30N 36°54' W 075°54'3 5.5
2017-Dec-16 06:00N 36°52' W 075°51'5 6.5
2017-Dec-16 05:11N 36°49' W 075°45'  
2017-Dec-13 03:23N 26°57' W 079°45'616.1
2017-Dec-13 03:01N 26°51' W 079°46'815.6
2017-Dec-13 02:28N 26°42' W 079°48'715.6
2017-Dec-13 02:01N 26°35' W 079°49'915.8
2017-Dec-13 01:28N 26°27' W 079°51'816.2
2017-Dec-13 01:00N 26°19' W 079°52'815.3
2017-Dec-13 00:31N 26°12' W 079°55'815.4
2017-Dec-13 00:01N 26°07' W 080°01'510.3
2017-Dec-12 23:31N 26°06' W 080°07'1 2.3
2017-Dec-12 23:00N 26°04' W 080°07'0 0.0
2017-Dec-12 22:30N 26°04' W 080°07'0 0.0
2017-Dec-12 22:00N 26°04' W 080°07'0 0.0
2017-Dec-12 21:28N 26°04' W 080°07'0 0.0
2017-Dec-12 20:58N 26°04' W 080°07'0 0.0
2017-Dec-12 20:28N 26°04' W 080°07'0 0.0
2017-Dec-12 19:58N 26°04' W 080°07'0 0.0
2017-Dec-12 19:28N 26°04' W 080°07'0 0.0
2017-Dec-12 18:58N 26°04' W 080°07'0 0.0
2017-Dec-12 18:28N 26°04' W 080°07'0 0.0
2017-Dec-12 17:58N 26°04' W 080°07'0 0.0
2017-Dec-12 17:28N 26°04' W 080°07'0 0.0
2017-Dec-12 16:58N 26°04' W 080°07'1 2.5
2017-Dec-12 16:30N 26°06' W 080°07'4 8.2
2017-Dec-12 16:00N 26°05' W 080°02'3 7.0
2017-Dec-12 15:30N 26°03' W 079°59'3 6.7
2017-Dec-12 15:00N 26°00' W 079°57'3 6.1
2017-Dec-12 14:30N 25°58' W 079°55'1 1.5
2017-Dec-12 14:00N 25°57' W 079°55'611.4
2017-Dec-12 13:30N 25°53' W 079°51'713.1
2017-Dec-12 13:00N 25°47' W 079°47'613.0
2017-Dec-12 12:31N 25°42' W 079°42'612.9
2017-Dec-12 12:00N 25°37' W 079°38'612.7
2017-Dec-12 11:30N 25°31' W 079°34'1013.5
2017-Dec-12 10:47N 25°22' W 079°31'  
Track history (hours):
 
Tides and Currents Weather Stations Pressure Air Temp Water Temp Dewpoint Dewpoint Depression Visibility Wind Speed Wind Dir Waves Ship Positions

Maersk Weymouth

Last reported at 2017-Dec-17 01:06 UTC. Time now 2017-Dec-18 01:26 UTC.
Position N 36°49' W 075°46'.

Length 175 m; draft 7.4 m.

Type: Cargo ship. MMSI: 477622100.

Date/timePositionNaut miles runAvg speedWind from/ knotsBaromVisibWave heightAir tempDewpointWater temp
2017-Dec-17 01:06N 36°49' W 075°46'1 7.0
2017-Dec-17 00:58N 36°49' W 075°47'4 7.1
2017-Dec-17 00:25N 36°51' W 075°51'3 6.8
2017-Dec-17 00:00N 36°53' W 075°54'3 7.1
2017-Dec-16 23:30N 36°56' W 075°57'4 8.5
2017-Dec-16 23:00N 36°57' W 076°02'714.9
2017-Dec-16 22:30N 36°60' W 076°11'713.5
2017-Dec-16 21:58N 36°58' W 076°20'5 9.9
2017-Dec-16 21:30N 36°54' W 076°20'2 4.5
2017-Dec-16 21:00N 36°51' W 076°20'0 0.0
2017-Dec-16 20:30N 36°51' W 076°20'0 0.0
2017-Dec-16 19:59N 36°51' W 076°20'0 0.0
2017-Dec-16 19:29N 36°51' W 076°20'0 0.0
2017-Dec-16 18:59N 36°51' W 076°20'0 0.0
2017-Dec-16 18:29N 36°51' W 076°20'0 0.0
2017-Dec-16 17:59N 36°51' W 076°20'0 0.0
2017-Dec-16 17:29N 36°51' W 076°20'0 0.0
2017-Dec-16 16:59N 36°51' W 076°20'0 0.0
2017-Dec-16 16:29N 36°51' W 076°20'0 0.0
2017-Dec-16 15:59N 36°51' W 076°20'0 0.0
2017-Dec-16 15:26N 36°51' W 076°20'0 0.0
2017-Dec-16 14:59N 36°51' W 076°20'0 0.0
2017-Dec-16 14:29N 36°51' W 076°20'0 0.0
2017-Dec-16 13:59N 36°51' W 076°20'0 0.0
2017-Dec-16 13:29N 36°51' W 076°20'0 0.0
2017-Dec-16 12:59N 36°51' W 076°20'0 0.0
2017-Dec-16 12:29N 36°51' W 076°20'0 0.0
2017-Dec-16 11:59N 36°51' W 076°20'0 0.0
2017-Dec-16 11:29N 36°51' W 076°20'0 0.0
2017-Dec-16 10:59N 36°51' W 076°20'0 0.0
2017-Dec-16 10:29N 36°51' W 076°20'0 0.0
2017-Dec-16 09:59N 36°51' W 076°20'0 0.4
2017-Dec-16 09:30N 36°52' W 076°20'2 4.6
2017-Dec-16 09:00N 36°54' W 076°20'4 8.9
2017-Dec-16 08:30N 36°58' W 076°20'712.4
2017-Dec-16 07:57N 36°60' W 076°12'714.8
2017-Dec-16 07:30N 36°58' W 076°04'611.3
2017-Dec-16 07:00N 36°56' W 075°57'4 7.2
2017-Dec-16 06:30N 36°54' W 075°54'3 5.5
2017-Dec-16 06:00N 36°52' W 075°51'5 6.5
2017-Dec-16 05:11N 36°49' W 075°45'  
2017-Dec-13 03:23N 26°57' W 079°45'616.1
2017-Dec-13 03:01N 26°51' W 079°46'815.6
2017-Dec-13 02:28N 26°42' W 079°48'715.6
2017-Dec-13 02:01N 26°35' W 079°49'915.8
2017-Dec-13 01:28N 26°27' W 079°51'816.2
2017-Dec-13 01:00N 26°19' W 079°52'815.3
2017-Dec-13 00:31N 26°12' W 079°55'815.4
2017-Dec-13 00:01N 26°07' W 080°01'510.3
2017-Dec-12 23:31N 26°06' W 080°07'1 2.3
2017-Dec-12 23:00N 26°04' W 080°07'0 0.0
2017-Dec-12 22:30N 26°04' W 080°07'0 0.0
2017-Dec-12 22:00N 26°04' W 080°07'0 0.0
2017-Dec-12 21:28N 26°04' W 080°07'0 0.0
2017-Dec-12 20:58N 26°04' W 080°07'0 0.0
2017-Dec-12 20:28N 26°04' W 080°07'0 0.0
2017-Dec-12 19:58N 26°04' W 080°07'0 0.0
2017-Dec-12 19:28N 26°04' W 080°07'0 0.0
2017-Dec-12 18:58N 26°04' W 080°07'0 0.0
2017-Dec-12 18:28N 26°04' W 080°07'0 0.0
2017-Dec-12 17:58N 26°04' W 080°07'0 0.0
2017-Dec-12 17:28N 26°04' W 080°07'0 0.0
2017-Dec-12 16:58N 26°04' W 080°07'1 2.5
2017-Dec-12 16:30N 26°06' W 080°07'4 8.2
2017-Dec-12 16:00N 26°05' W 080°02'3 7.0
2017-Dec-12 15:30N 26°03' W 079°59'3 6.7
2017-Dec-12 15:00N 26°00' W 079°57'3 6.1
2017-Dec-12 14:30N 25°58' W 079°55'1 1.5
2017-Dec-12 14:00N 25°57' W 079°55'611.4
2017-Dec-12 13:30N 25°53' W 079°51'713.1
2017-Dec-12 13:00N 25°47' W 079°47'613.0
2017-Dec-12 12:31N 25°42' W 079°42'612.9
2017-Dec-12 12:00N 25°37' W 079°38'612.7
2017-Dec-12 11:30N 25°31' W 079°34'1013.5
2017-Dec-12 10:47N 25°22' W 079°31'  

Dump ship's entire track history